sensor_id;sensor_type;location;lat;lon;timestamp;P1;durP1;ratioP1;P2;durP2;ratioP2
6209;SDS011;3138;52.550;13.148;2023-11-21T00:01:54;19.40;;;6.43;;
6209;SDS011;3138;52.550;13.148;2023-11-21T00:04:23;10.80;;;6.33;;
6209;SDS011;3138;52.550;13.148;2023-11-21T00:06:50;9.93;;;6.40;;
6209;SDS011;3138;52.550;13.148;2023-11-21T00:09:17;15.30;;;8.17;;
6209;SDS011;3138;52.550;13.148;2023-11-21T00:11:45;23.47;;;8.20;;
6209;SDS011;3138;52.550;13.148;2023-11-21T00:14:11;14.37;;;8.30;;
6209;SDS011;3138;52.550;13.148;2023-11-21T00:16:40;18.43;;;9.00;;
6209;SDS011;3138;52.550;13.148;2023-11-21T00:19:06;15.30;;;8.83;;
6209;SDS011;3138;52.550;13.148;2023-11-21T00:21:35;10.03;;;7.77;;
6209;SDS011;3138;52.550;13.148;2023-11-21T00:24:01;14.87;;;8.27;;
6209;SDS011;3138;52.550;13.148;2023-11-21T00:26:28;14.43;;;8.77;;
6209;SDS011;3138;52.550;13.148;2023-11-21T00:28:56;13.80;;;7.20;;
6209;SDS011;3138;52.550;13.148;2023-11-21T00:31:23;16.17;;;7.77;;
6209;SDS011;3138;52.550;13.148;2023-11-21T00:33:49;14.23;;;8.83;;
6209;SDS011;3138;52.550;13.148;2023-11-21T00:36:16;14.50;;;8.40;;
6209;SDS011;3138;52.550;13.148;2023-11-21T00:38:45;12.13;;;8.70;;
6209;SDS011;3138;52.550;13.148;2023-11-21T00:41:13;14.53;;;9.67;;
6209;SDS011;3138;52.550;13.148;2023-11-21T00:43:40;16.67;;;9.53;;
6209;SDS011;3138;52.550;13.148;2023-11-21T00:46:07;15.47;;;11.03;;
6209;SDS011;3138;52.550;13.148;2023-11-21T00:48:34;16.30;;;8.40;;
6209;SDS011;3138;52.550;13.148;2023-11-21T00:51:00;8.93;;;8.03;;
6209;SDS011;3138;52.550;13.148;2023-11-21T00:53:27;13.33;;;7.30;;
6209;SDS011;3138;52.550;13.148;2023-11-21T00:55:55;9.87;;;6.63;;
6209;SDS011;3138;52.550;13.148;2023-11-21T00:58:22;12.60;;;7.90;;
6209;SDS011;3138;52.550;13.148;2023-11-21T01:00:49;9.00;;;7.57;;
6209;SDS011;3138;52.550;13.148;2023-11-21T01:03:16;10.67;;;9.27;;
6209;SDS011;3138;52.550;13.148;2023-11-21T01:05:43;14.10;;;7.93;;
6209;SDS011;3138;52.550;13.148;2023-11-21T01:08:10;11.00;;;8.63;;
6209;SDS011;3138;52.550;13.148;2023-11-21T01:10:37;13.30;;;9.00;;
6209;SDS011;3138;52.550;13.148;2023-11-21T01:13:06;12.30;;;10.20;;
6209;SDS011;3138;52.550;13.148;2023-11-21T01:15:33;14.00;;;10.00;;
6209;SDS011;3138;52.550;13.148;2023-11-21T01:18:00;17.80;;;10.27;;
6209;SDS011;3138;52.550;13.148;2023-11-21T01:20:28;13.57;;;9.70;;
6209;SDS011;3138;52.550;13.148;2023-11-21T01:22:55;14.80;;;10.97;;
6209;SDS011;3138;52.550;13.148;2023-11-21T01:25:22;14.90;;;10.60;;
6209;SDS011;3138;52.550;13.148;2023-11-21T01:27:49;18.27;;;12.13;;
6209;SDS011;3138;52.550;13.148;2023-11-21T01:30:17;18.37;;;13.30;;
6209;SDS011;3138;52.550;13.148;2023-11-21T01:32:44;25.17;;;13.30;;
6209;SDS011;3138;52.550;13.148;2023-11-21T01:35:11;24.47;;;15.20;;
6209;SDS011;3138;52.550;13.148;2023-11-21T01:37:38;33.83;;;15.20;;
6209;SDS011;3138;52.550;13.148;2023-11-21T01:40:05;19.93;;;13.93;;
6209;SDS011;3138;52.550;13.148;2023-11-21T01:42:36;18.93;;;13.43;;
6209;SDS011;3138;52.550;13.148;2023-11-21T01:45:03;16.97;;;12.77;;
6209;SDS011;3138;52.550;13.148;2023-11-21T01:47:31;18.90;;;13.23;;
6209;SDS011;3138;52.550;13.148;2023-11-21T01:50:00;21.33;;;13.67;;
6209;SDS011;3138;52.550;13.148;2023-11-21T01:52:29;17.60;;;12.60;;
6209;SDS011;3138;52.550;13.148;2023-11-21T01:54:56;15.13;;;11.10;;
6209;SDS011;3138;52.550;13.148;2023-11-21T01:57:25;20.83;;;11.87;;
6209;SDS011;3138;52.550;13.148;2023-11-21T01:59:52;15.17;;;11.40;;
6209;SDS011;3138;52.550;13.148;2023-11-21T02:02:20;14.60;;;10.60;;
6209;SDS011;3138;52.550;13.148;2023-11-21T02:04:49;14.93;;;10.07;;
6209;SDS011;3138;52.550;13.148;2023-11-21T02:07:15;15.40;;;10.23;;
6209;SDS011;3138;52.550;13.148;2023-11-21T02:09:44;14.90;;;11.27;;
6209;SDS011;3138;52.550;13.148;2023-11-21T02:12:13;16.00;;;12.20;;
6209;SDS011;3138;52.550;13.148;2023-11-21T02:14:40;17.90;;;12.90;;
6209;SDS011;3138;52.550;13.148;2023-11-21T02:17:07;20.63;;;11.70;;
6209;SDS011;3138;52.550;13.148;2023-11-21T02:19:34;17.07;;;11.63;;
6209;SDS011;3138;52.550;13.148;2023-11-21T02:22:02;20.37;;;12.90;;
6209;SDS011;3138;52.550;13.148;2023-11-21T02:24:32;17.53;;;13.17;;
6209;SDS011;3138;52.550;13.148;2023-11-21T02:26:59;14.70;;;10.77;;
6209;SDS011;3138;52.550;13.148;2023-11-21T02:29:26;17.10;;;12.07;;
6209;SDS011;3138;52.550;13.148;2023-11-21T02:31:53;16.50;;;12.63;;
6209;SDS011;3138;52.550;13.148;2023-11-21T02:34:22;27.67;;;14.80;;
6209;SDS011;3138;52.550;13.148;2023-11-21T02:36:50;24.03;;;13.43;;
6209;SDS011;3138;52.550;13.148;2023-11-21T02:39:16;17.60;;;13.90;;
6209;SDS011;3138;52.550;13.148;2023-11-21T02:41:48;19.53;;;13.90;;
6209;SDS011;3138;52.550;13.148;2023-11-21T02:44:15;20.27;;;14.53;;
6209;SDS011;3138;52.550;13.148;2023-11-21T02:46:42;23.90;;;11.87;;
6209;SDS011;3138;52.550;13.148;2023-11-21T02:49:09;16.97;;;12.80;;
6209;SDS011;3138;52.550;13.148;2023-11-21T02:51:37;27.60;;;15.27;;
6209;SDS011;3138;52.550;13.148;2023-11-21T02:54:04;20.77;;;13.63;;
6209;SDS011;3138;52.550;13.148;2023-11-21T02:56:33;30.60;;;12.47;;
6209;SDS011;3138;52.550;13.148;2023-11-21T02:59:01;19.53;;;13.13;;
6209;SDS011;3138;52.550;13.148;2023-11-21T03:01:28;19.43;;;12.10;;
6209;SDS011;3138;52.550;13.148;2023-11-21T03:03:55;22.63;;;13.90;;
6209;SDS011;3138;52.550;13.148;2023-11-21T03:06:22;18.43;;;13.13;;
6209;SDS011;3138;52.550;13.148;2023-11-21T03:08:49;18.30;;;13.73;;
6209;SDS011;3138;52.550;13.148;2023-11-21T03:11:16;18.67;;;13.07;;
6209;SDS011;3138;52.550;13.148;2023-11-21T03:13:43;19.93;;;13.47;;
6209;SDS011;3138;52.550;13.148;2023-11-21T03:16:12;21.47;;;13.77;;
6209;SDS011;3138;52.550;13.148;2023-11-21T03:18:39;24.30;;;13.93;;
6209;SDS011;3138;52.550;13.148;2023-11-21T03:21:06;20.93;;;12.40;;
6209;SDS011;3138;52.550;13.148;2023-11-21T03:23:34;17.20;;;11.93;;
6209;SDS011;3138;52.550;13.148;2023-11-21T03:26:00;19.83;;;13.10;;
6209;SDS011;3138;52.550;13.148;2023-11-21T03:28:27;21.37;;;13.73;;
6209;SDS011;3138;52.550;13.148;2023-11-21T03:30:55;21.67;;;13.37;;
6209;SDS011;3138;52.550;13.148;2023-11-21T03:33:23;24.50;;;13.37;;
6209;SDS011;3138;52.550;13.148;2023-11-21T03:35:50;19.80;;;13.20;;
6209;SDS011;3138;52.550;13.148;2023-11-21T03:38:18;20.37;;;14.40;;
6209;SDS011;3138;52.550;13.148;2023-11-21T03:40:45;18.63;;;12.40;;
6209;SDS011;3138;52.550;13.148;2023-11-21T03:43:12;22.17;;;14.10;;
6209;SDS011;3138;52.550;13.148;2023-11-21T03:45:39;19.97;;;12.57;;
6209;SDS011;3138;52.550;13.148;2023-11-21T03:48:06;25.90;;;14.73;;
6209;SDS011;3138;52.550;13.148;2023-11-21T03:50:35;21.70;;;13.60;;
6209;SDS011;3138;52.550;13.148;2023-11-21T03:53:02;23.63;;;15.60;;
6209;SDS011;3138;52.550;13.148;2023-11-21T03:55:28;21.67;;;13.93;;
6209;SDS011;3138;52.550;13.148;2023-11-21T03:57:56;25.30;;;15.43;;
6209;SDS011;3138;52.550;13.148;2023-11-21T04:00:23;25.23;;;15.53;;
6209;SDS011;3138;52.550;13.148;2023-11-21T04:02:51;24.83;;;16.20;;
6209;SDS011;3138;52.550;13.148;2023-11-21T04:05:19;28.90;;;15.40;;
6209;SDS011;3138;52.550;13.148;2023-11-21T04:07:49;20.60;;;14.83;;
6209;SDS011;3138;52.550;13.148;2023-11-21T04:10:16;26.17;;;16.80;;
6209;SDS011;3138;52.550;13.148;2023-11-21T04:12:44;22.93;;;14.67;;
6209;SDS011;3138;52.550;13.148;2023-11-21T04:15:11;23.77;;;15.20;;
6209;SDS011;3138;52.550;13.148;2023-11-21T04:17:39;27.07;;;17.43;;
6209;SDS011;3138;52.550;13.148;2023-11-21T04:20:06;30.73;;;18.27;;
6209;SDS011;3138;52.550;13.148;2023-11-21T04:22:36;28.97;;;17.90;;
6209;SDS011;3138;52.550;13.148;2023-11-21T04:25:07;31.20;;;18.87;;
6209;SDS011;3138;52.550;13.148;2023-11-21T04:27:34;29.73;;;17.23;;
6209;SDS011;3138;52.550;13.148;2023-11-21T04:30:01;30.40;;;16.40;;
6209;SDS011;3138;52.550;13.148;2023-11-21T04:32:28;27.90;;;16.20;;
6209;SDS011;3138;52.550;13.148;2023-11-21T04:34:55;29.77;;;17.40;;
6209;SDS011;3138;52.550;13.148;2023-11-21T04:37:22;32.27;;;18.50;;
6209;SDS011;3138;52.550;13.148;2023-11-21T04:39:49;21.47;;;15.87;;
6209;SDS011;3138;52.550;13.148;2023-11-21T04:42:18;30.73;;;16.60;;
6209;SDS011;3138;52.550;13.148;2023-11-21T04:44:45;30.40;;;18.23;;
6209;SDS011;3138;52.550;13.148;2023-11-21T04:47:11;26.10;;;16.83;;
6209;SDS011;3138;52.550;13.148;2023-11-21T04:49:39;27.33;;;17.63;;
6209;SDS011;3138;52.550;13.148;2023-11-21T04:52:07;29.40;;;18.10;;
6209;SDS011;3138;52.550;13.148;2023-11-21T04:54:35;26.13;;;15.60;;
6209;SDS011;3138;52.550;13.148;2023-11-21T04:57:02;25.83;;;17.67;;
6209;SDS011;3138;52.550;13.148;2023-11-21T04:59:31;26.47;;;16.70;;
6209;SDS011;3138;52.550;13.148;2023-11-21T05:01:58;30.23;;;17.27;;
6209;SDS011;3138;52.550;13.148;2023-11-21T05:04:25;29.23;;;17.23;;
6209;SDS011;3138;52.550;13.148;2023-11-21T05:06:52;24.10;;;14.67;;
6209;SDS011;3138;52.550;13.148;2023-11-21T05:09:18;34.20;;;15.33;;
6209;SDS011;3138;52.550;13.148;2023-11-21T05:11:47;27.70;;;16.73;;
6209;SDS011;3138;52.550;13.148;2023-11-21T05:14:14;25.53;;;16.27;;
6209;SDS011;3138;52.550;13.148;2023-11-21T05:16:42;25.83;;;16.67;;
6209;SDS011;3138;52.550;13.148;2023-11-21T05:19:09;28.23;;;16.80;;
6209;SDS011;3138;52.550;13.148;2023-11-21T05:21:38;26.17;;;16.20;;
6209;SDS011;3138;52.550;13.148;2023-11-21T05:24:05;24.60;;;15.07;;
6209;SDS011;3138;52.550;13.148;2023-11-21T05:26:32;32.90;;;18.50;;
6209;SDS011;3138;52.550;13.148;2023-11-21T05:29:00;24.00;;;16.10;;
6209;SDS011;3138;52.550;13.148;2023-11-21T05:31:27;25.67;;;15.07;;
6209;SDS011;3138;52.550;13.148;2023-11-21T05:33:55;30.27;;;17.90;;
6209;SDS011;3138;52.550;13.148;2023-11-21T05:36:22;29.67;;;17.73;;
6209;SDS011;3138;52.550;13.148;2023-11-21T05:38:49;21.40;;;14.50;;
6209;SDS011;3138;52.550;13.148;2023-11-21T05:41:16;30.97;;;15.17;;
6209;SDS011;3138;52.550;13.148;2023-11-21T05:43:43;33.73;;;14.63;;
6209;SDS011;3138;52.550;13.148;2023-11-21T05:46:10;21.67;;;14.03;;
6209;SDS011;3138;52.550;13.148;2023-11-21T05:48:38;26.10;;;14.50;;
6209;SDS011;3138;52.550;13.148;2023-11-21T05:51:06;25.63;;;14.70;;
6209;SDS011;3138;52.550;13.148;2023-11-21T05:53:33;20.70;;;13.90;;
6209;SDS011;3138;52.550;13.148;2023-11-21T05:56:00;25.30;;;14.47;;
6209;SDS011;3138;52.550;13.148;2023-11-21T05:58:28;24.90;;;15.47;;
6209;SDS011;3138;52.550;13.148;2023-11-21T06:00:55;30.03;;;15.47;;
6209;SDS011;3138;52.550;13.148;2023-11-21T06:03:22;28.80;;;16.40;;
6209;SDS011;3138;52.550;13.148;2023-11-21T06:05:50;26.17;;;15.50;;
6209;SDS011;3138;52.550;13.148;2023-11-21T06:08:18;29.10;;;15.80;;
6209;SDS011;3138;52.550;13.148;2023-11-21T06:10:45;27.23;;;16.40;;
6209;SDS011;3138;52.550;13.148;2023-11-21T06:13:14;36.80;;;15.47;;
6209;SDS011;3138;52.550;13.148;2023-11-21T06:15:41;26.03;;;12.90;;
6209;SDS011;3138;52.550;13.148;2023-11-21T06:18:08;19.90;;;12.47;;
6209;SDS011;3138;52.550;13.148;2023-11-21T06:20:36;14.33;;;11.17;;
6209;SDS011;3138;52.550;13.148;2023-11-21T06:23:03;23.63;;;13.37;;
6209;SDS011;3138;52.550;13.148;2023-11-21T06:25:32;20.33;;;12.10;;
6209;SDS011;3138;52.550;13.148;2023-11-21T06:28:01;16.90;;;10.77;;
6209;SDS011;3138;52.550;13.148;2023-11-21T06:30:28;16.80;;;11.67;;
6209;SDS011;3138;52.550;13.148;2023-11-21T06:32:55;23.50;;;13.47;;
6209;SDS011;3138;52.550;13.148;2023-11-21T06:35:21;19.20;;;12.67;;
6209;SDS011;3138;52.550;13.148;2023-11-21T06:37:48;22.30;;;12.03;;
6209;SDS011;3138;52.550;13.148;2023-11-21T06:40:16;26.63;;;13.07;;
6209;SDS011;3138;52.550;13.148;2023-11-21T06:42:45;26.20;;;14.50;;
6209;SDS011;3138;52.550;13.148;2023-11-21T06:45:12;31.23;;;17.07;;
6209;SDS011;3138;52.550;13.148;2023-11-21T06:47:40;19.93;;;11.80;;
6209;SDS011;3138;52.550;13.148;2023-11-21T06:50:08;16.23;;;10.90;;
6209;SDS011;3138;52.550;13.148;2023-11-21T06:52:35;16.23;;;10.03;;
6209;SDS011;3138;52.550;13.148;2023-11-21T06:55:02;15.40;;;11.00;;
6209;SDS011;3138;52.550;13.148;2023-11-21T06:57:29;17.53;;;11.37;;
6209;SDS011;3138;52.550;13.148;2023-11-21T06:59:58;18.10;;;10.50;;
6209;SDS011;3138;52.550;13.148;2023-11-21T07:02:26;12.27;;;8.60;;
6209;SDS011;3138;52.550;13.148;2023-11-21T07:04:53;15.83;;;9.10;;
6209;SDS011;3138;52.550;13.148;2023-11-21T07:07:19;16.13;;;9.73;;
6209;SDS011;3138;52.550;13.148;2023-11-21T07:09:46;25.23;;;9.43;;
6209;SDS011;3138;52.550;13.148;2023-11-21T07:12:14;15.23;;;9.53;;
6209;SDS011;3138;52.550;13.148;2023-11-21T07:14:40;20.60;;;10.83;;
6209;SDS011;3138;52.550;13.148;2023-11-21T07:17:11;20.97;;;9.27;;
6209;SDS011;3138;52.550;13.148;2023-11-21T07:19:38;18.67;;;10.00;;
6209;SDS011;3138;52.550;13.148;2023-11-21T07:22:06;13.30;;;8.77;;
6209;SDS011;3138;52.550;13.148;2023-11-21T07:24:33;18.60;;;10.60;;
6209;SDS011;3138;52.550;13.148;2023-11-21T07:27:01;20.63;;;9.13;;
6209;SDS011;3138;52.550;13.148;2023-11-21T07:29:29;16.93;;;9.67;;
6209;SDS011;3138;52.550;13.148;2023-11-21T07:31:56;11.63;;;8.67;;
6209;SDS011;3138;52.550;13.148;2023-11-21T07:34:24;18.33;;;9.83;;
6209;SDS011;3138;52.550;13.148;2023-11-21T07:36:51;12.27;;;9.10;;
6209;SDS011;3138;52.550;13.148;2023-11-21T07:39:18;15.70;;;9.10;;
6209;SDS011;3138;52.550;13.148;2023-11-21T07:41:45;12.90;;;9.40;;
6209;SDS011;3138;52.550;13.148;2023-11-21T07:44:13;19.40;;;8.63;;
6209;SDS011;3138;52.550;13.148;2023-11-21T07:46:40;11.07;;;8.40;;
6209;SDS011;3138;52.550;13.148;2023-11-21T07:49:07;10.50;;;7.40;;
6209;SDS011;3138;52.550;13.148;2023-11-21T07:51:36;12.77;;;8.60;;
6209;SDS011;3138;52.550;13.148;2023-11-21T07:54:03;13.00;;;8.70;;
6209;SDS011;3138;52.550;13.148;2023-11-21T07:56:31;15.30;;;9.13;;
6209;SDS011;3138;52.550;13.148;2023-11-21T07:58:58;11.27;;;8.23;;
6209;SDS011;3138;52.550;13.148;2023-11-21T08:01:25;16.20;;;10.00;;
6209;SDS011;3138;52.550;13.148;2023-11-21T08:03:53;10.90;;;7.20;;
6209;SDS011;3138;52.550;13.148;2023-11-21T08:06:22;14.63;;;9.13;;
6209;SDS011;3138;52.550;13.148;2023-11-21T08:08:50;17.33;;;8.20;;
6209;SDS011;3138;52.550;13.148;2023-11-21T08:11:17;11.97;;;8.10;;
6209;SDS011;3138;52.550;13.148;2023-11-21T08:13:44;9.47;;;7.67;;
6209;SDS011;3138;52.550;13.148;2023-11-21T08:16:12;9.53;;;6.87;;
6209;SDS011;3138;52.550;13.148;2023-11-21T08:18:39;6.10;;;5.27;;
6209;SDS011;3138;52.550;13.148;2023-11-21T08:21:06;7.73;;;6.20;;
6209;SDS011;3138;52.550;13.148;2023-11-21T08:23:33;9.23;;;7.50;;
6209;SDS011;3138;52.550;13.148;2023-11-21T08:26:01;11.40;;;7.13;;
6209;SDS011;3138;52.550;13.148;2023-11-21T08:28:28;10.10;;;6.80;;
6209;SDS011;3138;52.550;13.148;2023-11-21T08:30:55;10.20;;;6.40;;
6209;SDS011;3138;52.550;13.148;2023-11-21T08:33:22;30.00;;;17.03;;
6209;SDS011;3138;52.550;13.148;2023-11-21T08:35:49;16.53;;;7.67;;
6209;SDS011;3138;52.550;13.148;2023-11-21T08:38:16;9.43;;;7.43;;
6209;SDS011;3138;52.550;13.148;2023-11-21T08:40:43;10.07;;;6.50;;
6209;SDS011;3138;52.550;13.148;2023-11-21T08:43:12;9.50;;;6.40;;
6209;SDS011;3138;52.550;13.148;2023-11-21T08:45:39;6.87;;;6.00;;
6209;SDS011;3138;52.550;13.148;2023-11-21T08:48:06;8.10;;;5.83;;
6209;SDS011;3138;52.550;13.148;2023-11-21T08:50:33;8.20;;;6.10;;
6209;SDS011;3138;52.550;13.148;2023-11-21T08:53:00;7.20;;;5.30;;
6209;SDS011;3138;52.550;13.148;2023-11-21T08:55:27;5.17;;;4.67;;
6209;SDS011;3138;52.550;13.148;2023-11-21T08:57:54;13.03;;;5.67;;
6209;SDS011;3138;52.550;13.148;2023-11-21T09:00:22;21.77;;;5.80;;
6209;SDS011;3138;52.550;13.148;2023-11-21T09:02:49;11.80;;;6.40;;
6209;SDS011;3138;52.550;13.148;2023-11-21T09:05:16;8.20;;;5.30;;
6209;SDS011;3138;52.550;13.148;2023-11-21T09:07:45;22.43;;;14.07;;
6209;SDS011;3138;52.550;13.148;2023-11-21T09:10:13;10.10;;;5.97;;
6209;SDS011;3138;52.550;13.148;2023-11-21T09:12:40;6.53;;;5.73;;
6209;SDS011;3138;52.550;13.148;2023-11-21T09:15:08;8.77;;;5.70;;
6209;SDS011;3138;52.550;13.148;2023-11-21T09:17:38;9.70;;;5.57;;
6209;SDS011;3138;52.550;13.148;2023-11-21T09:20:05;21.00;;;5.90;;
6209;SDS011;3138;52.550;13.148;2023-11-21T09:22:35;7.70;;;5.63;;
6209;SDS011;3138;52.550;13.148;2023-11-21T09:25:02;5.80;;;5.20;;
6209;SDS011;3138;52.550;13.148;2023-11-21T09:27:30;10.90;;;6.63;;
6209;SDS011;3138;52.550;13.148;2023-11-21T09:29:57;8.00;;;5.63;;
6209;SDS011;3138;52.550;13.148;2023-11-21T09:32:24;7.77;;;6.23;;
6209;SDS011;3138;52.550;13.148;2023-11-21T09:34:52;12.67;;;6.40;;
6209;SDS011;3138;52.550;13.148;2023-11-21T09:37:20;6.50;;;5.23;;
6209;SDS011;3138;52.550;13.148;2023-11-21T09:39:47;11.37;;;6.80;;
6209;SDS011;3138;52.550;13.148;2023-11-21T09:42:15;7.90;;;6.20;;
6209;SDS011;3138;52.550;13.148;2023-11-21T09:44:48;9.90;;;6.33;;
6209;SDS011;3138;52.550;13.148;2023-11-21T09:47:26;10.10;;;5.20;;
6209;SDS011;3138;52.550;13.148;2023-11-21T09:49:56;5.60;;;5.10;;
6209;SDS011;3138;52.550;13.148;2023-11-21T09:52:26;10.20;;;5.40;;
6209;SDS011;3138;52.550;13.148;2023-11-21T09:54:54;12.73;;;5.70;;
6209;SDS011;3138;52.550;13.148;2023-11-21T09:57:23;9.57;;;5.70;;
6209;SDS011;3138;52.550;13.148;2023-11-21T09:59:50;5.17;;;4.67;;
6209;SDS011;3138;52.550;13.148;2023-11-21T10:02:21;7.57;;;6.30;;
6209;SDS011;3138;52.550;13.148;2023-11-21T10:04:51;11.47;;;6.00;;
6209;SDS011;3138;52.550;13.148;2023-11-21T10:07:20;6.80;;;5.47;;
6209;SDS011;3138;52.550;13.148;2023-11-21T10:09:47;8.80;;;5.50;;
6209;SDS011;3138;52.550;13.148;2023-11-21T10:12:14;12.93;;;5.63;;
6209;SDS011;3138;52.550;13.148;2023-11-21T10:14:42;8.70;;;6.37;;
6209;SDS011;3138;52.550;13.148;2023-11-21T10:17:12;11.23;;;6.47;;
6209;SDS011;3138;52.550;13.148;2023-11-21T10:19:43;12.70;;;7.43;;
6209;SDS011;3138;52.550;13.148;2023-11-21T10:22:13;9.80;;;6.27;;
6209;SDS011;3138;52.550;13.148;2023-11-21T10:24:43;11.37;;;7.00;;
6209;SDS011;3138;52.550;13.148;2023-11-21T10:27:10;8.90;;;7.10;;
6209;SDS011;3138;52.550;13.148;2023-11-21T10:29:38;18.17;;;10.20;;
6209;SDS011;3138;52.550;13.148;2023-11-21T10:32:07;16.47;;;9.37;;
6209;SDS011;3138;52.550;13.148;2023-11-21T10:34:33;14.43;;;9.07;;
6209;SDS011;3138;52.550;13.148;2023-11-21T10:37:07;10.00;;;7.63;;
6209;SDS011;3138;52.550;13.148;2023-11-21T10:39:38;21.30;;;10.17;;
6209;SDS011;3138;52.550;13.148;2023-11-21T10:42:07;10.60;;;6.70;;
6209;SDS011;3138;52.550;13.148;2023-11-21T10:44:34;14.10;;;8.60;;
6209;SDS011;3138;52.550;13.148;2023-11-21T10:47:02;9.80;;;7.00;;
6209;SDS011;3138;52.550;13.148;2023-11-21T10:49:30;7.70;;;6.20;;
6209;SDS011;3138;52.550;13.148;2023-11-21T10:51:57;10.00;;;6.40;;
6209;SDS011;3138;52.550;13.148;2023-11-21T10:54:24;14.43;;;7.27;;
6209;SDS011;3138;52.550;13.148;2023-11-21T10:56:53;9.93;;;6.67;;
6209;SDS011;3138;52.550;13.148;2023-11-21T10:59:25;11.67;;;6.30;;
6209;SDS011;3138;52.550;13.148;2023-11-21T11:01:54;7.40;;;5.47;;
6209;SDS011;3138;52.550;13.148;2023-11-21T11:04:25;12.40;;;6.93;;
6209;SDS011;3138;52.550;13.148;2023-11-21T11:06:54;10.87;;;6.47;;
6209;SDS011;3138;52.550;13.148;2023-11-21T11:09:23;8.67;;;6.20;;
6209;SDS011;3138;52.550;13.148;2023-11-21T11:11:51;7.20;;;6.00;;
6209;SDS011;3138;52.550;13.148;2023-11-21T11:14:19;9.23;;;6.67;;
6209;SDS011;3138;52.550;13.148;2023-11-21T11:16:52;10.57;;;6.17;;
6209;SDS011;3138;52.550;13.148;2023-11-21T11:19:20;9.33;;;6.00;;
6209;SDS011;3138;52.550;13.148;2023-11-21T11:21:49;12.97;;;6.67;;
6209;SDS011;3138;52.550;13.148;2023-11-21T11:24:30;10.73;;;7.57;;
6209;SDS011;3138;52.550;13.148;2023-11-21T11:27:11;6.83;;;5.90;;
6209;SDS011;3138;52.550;13.148;2023-11-21T11:29:52;8.97;;;7.83;;
6209;SDS011;3138;52.550;13.148;2023-11-21T11:32:34;11.00;;;8.80;;
6209;SDS011;3138;52.550;13.148;2023-11-21T11:35:10;13.47;;;9.37;;
6209;SDS011;3138;52.550;13.148;2023-11-21T11:37:43;13.23;;;9.00;;
6209;SDS011;3138;52.550;13.148;2023-11-21T11:40:10;12.37;;;8.10;;
6209;SDS011;3138;52.550;13.148;2023-11-21T11:42:38;15.87;;;9.33;;
6209;SDS011;3138;52.550;13.148;2023-11-21T11:45:17;20.00;;;11.10;;
6209;SDS011;3138;52.550;13.148;2023-11-21T11:47:46;14.90;;;8.90;;
6209;SDS011;3138;52.550;13.148;2023-11-21T11:50:14;10.47;;;7.90;;
6209;SDS011;3138;52.550;13.148;2023-11-21T11:52:43;14.20;;;9.80;;
6209;SDS011;3138;52.550;13.148;2023-11-21T11:55:10;10.83;;;8.37;;
6209;SDS011;3138;52.550;13.148;2023-11-21T11:57:38;18.97;;;9.20;;
6209;SDS011;3138;52.550;13.148;2023-11-21T12:00:07;13.17;;;9.13;;
6209;SDS011;3138;52.550;13.148;2023-11-21T12:02:41;14.67;;;9.27;;
6209;SDS011;3138;52.550;13.148;2023-11-21T12:05:10;15.73;;;9.17;;
6209;SDS011;3138;52.550;13.148;2023-11-21T12:07:48;16.20;;;9.60;;
6209;SDS011;3138;52.550;13.148;2023-11-21T12:10:18;18.00;;;11.47;;
6209;SDS011;3138;52.550;13.148;2023-11-21T12:12:46;19.10;;;10.80;;
6209;SDS011;3138;52.550;13.148;2023-11-21T12:15:14;23.67;;;10.33;;
6209;SDS011;3138;52.550;13.148;2023-11-21T12:17:41;18.60;;;10.87;;
6209;SDS011;3138;52.550;13.148;2023-11-21T12:20:11;15.97;;;9.70;;
6209;SDS011;3138;52.550;13.148;2023-11-21T12:22:43;18.23;;;9.80;;
6209;SDS011;3138;52.550;13.148;2023-11-21T12:25:13;14.03;;;8.80;;
6209;SDS011;3138;52.550;13.148;2023-11-21T12:27:43;16.80;;;9.10;;
6209;SDS011;3138;52.550;13.148;2023-11-21T12:30:12;21.47;;;9.80;;
6209;SDS011;3138;52.550;13.148;2023-11-21T12:32:40;16.70;;;10.53;;
6209;SDS011;3138;52.550;13.148;2023-11-21T12:35:08;14.33;;;9.20;;
6209;SDS011;3138;52.550;13.148;2023-11-21T12:37:37;15.73;;;8.80;;
6209;SDS011;3138;52.550;13.148;2023-11-21T12:40:05;9.90;;;7.47;;
6209;SDS011;3138;52.550;13.148;2023-11-21T12:42:37;13.20;;;8.03;;
6209;SDS011;3138;52.550;13.148;2023-11-21T12:45:06;14.67;;;9.00;;
6209;SDS011;3138;52.550;13.148;2023-11-21T12:47:39;15.63;;;8.10;;
6209;SDS011;3138;52.550;13.148;2023-11-21T12:50:06;12.20;;;7.93;;
6209;SDS011;3138;52.550;13.148;2023-11-21T12:52:40;11.17;;;7.03;;
6209;SDS011;3138;52.550;13.148;2023-11-21T12:55:12;19.10;;;9.17;;
6209;SDS011;3138;52.550;13.148;2023-11-21T12:57:41;14.93;;;8.67;;
6209;SDS011;3138;52.550;13.148;2023-11-21T13:00:09;10.93;;;7.80;;
6209;SDS011;3138;52.550;13.148;2023-11-21T13:02:40;17.17;;;10.27;;
6209;SDS011;3138;52.550;13.148;2023-11-21T13:05:08;12.37;;;8.70;;
6209;SDS011;3138;52.550;13.148;2023-11-21T13:07:44;22.80;;;9.40;;
6209;SDS011;3138;52.550;13.148;2023-11-21T13:10:12;17.40;;;9.97;;
6209;SDS011;3138;52.550;13.148;2023-11-21T13:12:42;17.70;;;10.47;;
6209;SDS011;3138;52.550;13.148;2023-11-21T13:15:13;14.33;;;9.23;;
6209;SDS011;3138;52.550;13.148;2023-11-21T13:17:41;14.43;;;9.20;;
6209;SDS011;3138;52.550;13.148;2023-11-21T13:20:09;12.30;;;9.90;;
6209;SDS011;3138;52.550;13.148;2023-11-21T13:22:45;16.23;;;10.13;;
6209;SDS011;3138;52.550;13.148;2023-11-21T13:25:14;22.37;;;10.20;;
6209;SDS011;3138;52.550;13.148;2023-11-21T13:27:42;18.30;;;11.53;;
6209;SDS011;3138;52.550;13.148;2023-11-21T13:30:11;29.73;;;12.13;;
6209;SDS011;3138;52.550;13.148;2023-11-21T13:32:41;19.53;;;13.53;;
6209;SDS011;3138;52.550;13.148;2023-11-21T13:35:08;22.70;;;12.50;;
6209;SDS011;3138;52.550;13.148;2023-11-21T13:37:40;19.03;;;12.00;;
6209;SDS011;3138;52.550;13.148;2023-11-21T13:40:12;25.77;;;14.90;;
6209;SDS011;3138;52.550;13.148;2023-11-21T13:42:40;25.87;;;15.47;;
6209;SDS011;3138;52.550;13.148;2023-11-21T13:45:08;26.13;;;14.60;;
6209;SDS011;3138;52.550;13.148;2023-11-21T13:47:37;25.70;;;16.00;;
6209;SDS011;3138;52.550;13.148;2023-11-21T13:50:05;25.70;;;14.60;;
6209;SDS011;3138;52.550;13.148;2023-11-21T13:52:39;26.30;;;15.50;;
6209;SDS011;3138;52.550;13.148;2023-11-21T13:55:06;28.93;;;15.93;;
6209;SDS011;3138;52.550;13.148;2023-11-21T13:57:40;26.73;;;14.40;;
6209;SDS011;3138;52.550;13.148;2023-11-21T14:00:08;24.77;;;14.37;;
6209;SDS011;3138;52.550;13.148;2023-11-21T14:02:56;35.67;;;16.30;;
6209;SDS011;3138;52.550;13.148;2023-11-21T14:05:25;28.80;;;16.10;;
6209;SDS011;3138;52.550;13.148;2023-11-21T14:07:54;36.83;;;17.07;;
6209;SDS011;3138;52.550;13.148;2023-11-21T14:10:27;30.20;;;17.53;;
6209;SDS011;3138;52.550;13.148;2023-11-21T14:13:03;34.40;;;16.83;;
6209;SDS011;3138;52.550;13.148;2023-11-21T14:15:31;27.57;;;17.30;;
6209;SDS011;3138;52.550;13.148;2023-11-21T14:18:02;36.23;;;18.00;;
6209;SDS011;3138;52.550;13.148;2023-11-21T14:20:32;31.80;;;18.63;;
6209;SDS011;3138;52.550;13.148;2023-11-21T14:23:01;30.83;;;16.60;;
6209;SDS011;3138;52.550;13.148;2023-11-21T14:25:27;38.17;;;20.27;;
6209;SDS011;3138;52.550;13.148;2023-11-21T14:27:54;43.70;;;20.20;;
6209;SDS011;3138;52.550;13.148;2023-11-21T14:30:22;34.60;;;19.00;;
6209;SDS011;3138;52.550;13.148;2023-11-21T14:32:50;50.00;;;21.33;;
6209;SDS011;3138;52.550;13.148;2023-11-21T14:35:17;58.13;;;23.80;;
6209;SDS011;3138;52.550;13.148;2023-11-21T14:37:44;48.73;;;22.03;;
6209;SDS011;3138;52.550;13.148;2023-11-21T14:40:11;44.10;;;21.53;;
6209;SDS011;3138;52.550;13.148;2023-11-21T14:42:41;51.50;;;22.43;;
6209;SDS011;3138;52.550;13.148;2023-11-21T14:45:08;45.83;;;20.50;;
6209;SDS011;3138;52.550;13.148;2023-11-21T14:47:39;41.50;;;21.47;;
6209;SDS011;3138;52.550;13.148;2023-11-21T14:50:11;41.20;;;21.20;;